Time;durP1;ratioP1;P1;durP2;ratioP2;P2;SDS_P1;SDS_P2;PMS_P1;PMS_P2;Temp;Humidity;BMP_temperature;BMP_pressure;BME280_temperature;BME280_humidity;BME280_pressure;Samples;Min_cycle;Max_cycle;Signal;HPM_P1;HPM_P2
2022/12/19 00:01:21;;;;;;;52.58;31.65;;;;;;;4.52;59.52;101787.59;5095141;28;20036;-68
2022/12/19 00:03:52;;;;;;;49.25;30.42;;;;;;;4.52;59.57;101788.44;5094016;28;20502;-68
2022/12/19 00:06:19;;;;;;;54.55;30.75;;;;;;;4.53;59.64;101795.50;5095158;28;20038;-68
2022/12/19 00:08:49;;;;;;;56.10;32.78;;;;;;;4.53;59.84;101782.22;5093204;28;20406;-69
2022/12/19 00:11:17;;;;;;;50.95;31.02;;;;;;;4.54;59.75;101788.41;5074946;28;20058;-69
2022/12/19 00:13:44;;;;;;;55.45;30.13;;;;;;;4.55;59.82;101798.13;5074834;28;20040;-69
2022/12/19 00:16:14;;;;;;;49.97;30.40;;;;;;;4.54;59.77;101796.38;5074626;28;20045;-69
2022/12/19 00:18:45;;;;;;;50.17;30.10;;;;;;;4.54;59.82;101791.94;5074751;28;20521;-69
2022/12/19 00:21:15;;;;;;;52.40;30.27;;;;;;;4.56;59.93;101783.91;5074969;28;20048;-68
2022/12/19 00:23:42;;;;;;;55.80;31.20;;;;;;;4.56;60.02;101778.59;5074711;28;20044;-67
2022/12/19 00:26:15;;;;;;;51.00;30.10;;;;;;;4.57;60.09;101780.31;5074920;28;20040;-67
2022/12/19 00:28:46;;;;;;;;;;;;;;;4.59;60.13;101765.19;5075658;28;20075;-67
2022/12/19 00:31:14;;;;;;;51.90;30.10;;;;;;;4.63;60.03;101767.69;5090187;28;19928;-67
2022/12/19 00:33:41;;;;;;;53.65;31.75;;;;;;;4.64;60.16;101750.81;5073404;28;20048;-67
2022/12/19 00:36:13;;;;;;;60.60;31.67;;;;;;;4.66;60.22;101766.72;5089802;28;20047;-67
2022/12/19 00:38:42;;;;;;;58.15;33.90;;;;;;;4.65;60.41;101735.72;5074416;28;20115;-67
2022/12/19 00:41:19;;;;;;;66.60;33.67;;;;;;;4.66;60.30;101740.13;5074144;28;20131;-67
2022/12/19 00:43:51;;;;;;;58.00;34.13;;;;;;;4.68;60.61;101725.84;5073041;28;20055;-67
2022/12/19 00:46:18;;;;;;;64.30;35.63;;;;;;;4.70;60.78;101716.03;5072860;28;20109;-68
2022/12/19 00:48:44;;;;;;;62.47;31.73;;;;;;;4.72;60.74;101713.31;5081037;28;20035;-67
2022/12/19 00:51:16;;;;;;;60.97;34.63;;;;;;;4.72;60.86;101705.34;5098143;28;20098;-68
2022/12/19 00:53:45;;;;;;;63.72;34.58;;;;;;;4.73;60.76;101688.44;5073855;28;20052;-67
2022/12/19 00:56:16;;;;;;;66.50;35.28;;;;;;;4.74;60.98;101674.22;5073901;28;20041;-67
2022/12/19 00:58:44;;;;;;;61.47;33.15;;;;;;;4.76;60.98;101696.34;5080983;28;20494;-67
2022/12/19 01:01:28;;;;;;;61.25;33.25;;;;;;;4.76;61.12;101661.75;5094111;28;20047;-66
2022/12/19 01:03:57;;;;;;;57.10;34.50;;;;;;;4.81;61.18;101667.78;5094037;28;20130;-68
2022/12/19 01:06:43;;;;;;;59.33;32.92;;;;;;;4.83;61.13;101687.22;5092757;28;20051;-67
2022/12/19 01:09:11;;;;;;;59.10;32.03;;;;;;;4.86;61.19;101684.44;5093424;28;20040;-68
2022/12/19 01:14:23;;;;;;;57.63;33.65;;;;;;;4.92;61.38;101668.28;5092760;28;20040;-68
2022/12/19 01:16:50;;;;;;;59.53;33.42;;;;;;;4.94;61.52;101662.91;5093962;28;20035;-67
2022/12/19 01:19:18;;;;;;;56.22;32.83;;;;;;;4.96;61.66;101679.69;5093535;28;20118;-68
2022/12/19 01:21:45;;;;;;;50.38;29.90;;;;;;;5.00;61.62;101678.66;5092505;28;20062;-68
2022/12/19 01:24:12;;;;;;;56.20;31.75;;;;;;;5.03;61.66;101678.53;5093989;28;20051;-68
2022/12/19 01:26:48;;;;;;;55.33;32.00;;;;;;;5.06;61.80;101678.44;5092638;28;20518;-67
2022/12/19 01:29:14;;;;;;;52.70;30.30;;;;;;;5.09;61.60;101673.00;5082776;28;20040;-67
2022/12/19 01:31:41;;;;;;;55.80;32.58;;;;;;;5.12;61.65;101667.56;5071972;28;20044;-66
2022/12/19 01:34:07;;;;;;;53.60;30.73;;;;;;;5.15;61.70;101650.63;5073815;28;20120;-68
2022/12/19 01:36:34;;;;;;;55.92;29.92;;;;;;;5.17;61.68;101657.63;5089185;28;20040;-67
2022/12/19 01:39:06;;;;;;;52.05;30.95;;;;;;;5.20;61.79;101649.56;5082433;28;20040;-68
2022/12/19 01:41:33;;;;;;;54.70;30.15;;;;;;;5.23;61.61;101651.25;5093571;28;20044;-67
2022/12/19 01:44:03;;;;;;;54.75;31.30;;;;;;;5.25;61.77;101641.41;5093304;28;20044;-68
2022/12/19 01:46:41;;;;;;;55.17;31.65;;;;;;;5.27;61.90;101650.22;5093461;28;20043;-68
2022/12/19 01:49:28;;;;;;;57.70;32.17;;;;;;;5.30;61.94;101653.63;5095870;28;20486;-67
2022/12/19 01:52:08;;;;;;;52.65;29.25;;;;;;;5.35;61.76;101653.47;5094414;28;20048;-68
2022/12/19 01:54:40;;;;;;;48.63;30.58;;;;;;;5.37;61.81;101643.63;5093875;28;20082;-66
2022/12/19 01:57:12;;;;;;;49.75;29.33;;;;;;;5.40;61.79;101625.72;5086716;28;20040;-67
2022/12/19 01:59:46;;;;;;;51.05;29.67;;;;;;;5.42;61.99;101633.66;5072270;28;20059;-68
2022/12/19 02:02:22;;;;;;;52.33;30.90;;;;;;;5.42;61.87;101628.34;5072771;28;20047;-67
2022/12/19 02:04:48;;;;;;;48.72;28.08;;;;;;;5.44;61.85;101631.81;5073483;28;20282;-68
2022/12/19 02:07:17;;;;;;;52.55;29.77;;;;;;;5.46;62.04;101619.31;5079937;28;20062;-68
2022/12/19 02:09:45;;;;;;;45.88;27.27;;;;;;;5.49;62.01;101623.66;5092172;28;20375;-68
2022/12/19 02:12:13;;;;;;;47.72;28.42;;;;;;;5.53;61.89;101619.94;5091708;28;20433;-68
2022/12/19 02:14:40;;;;;;;49.20;27.17;;;;;;;5.57;62.11;101626.91;5093167;28;20486;-68
2022/12/19 02:17:40;;;;;;;45.75;27.63;;;;;;;5.59;62.04;101609.06;5086448;28;20045;-68
2022/12/19 02:20:22;;;;;;;48.70;28.63;;;;;;;5.66;62.01;101606.09;5071649;28;20037;-67
2022/12/19 02:23:26;;;;;;;46.50;26.92;;;;;;;5.68;62.18;101603.38;5071571;28;20498;-67
2022/12/19 02:26:31;;;;;;;44.95;27.15;;;;;;;5.72;62.23;101597.84;5071157;28;20044;-67
2022/12/19 02:29:22;;;;;;;43.97;26.48;;;;;;;5.75;61.95;101595.06;5072982;28;20065;-67
2022/12/19 02:32:17;;;;;;;46.90;26.90;;;;;;;5.76;62.18;101587.94;5071344;28;20076;-68
2022/12/19 02:35:03;;;;;;;47.13;27.25;;;;;;;5.78;62.06;101596.75;5071715;28;20090;-68
2022/12/19 02:37:34;;;;;;;44.85;27.83;;;;;;;5.80;62.08;101599.34;5072865;28;20033;-67
2022/12/19 02:40:48;;;;;;;47.42;27.98;;;;;;;5.81;62.16;101601.09;5071689;28;20052;-68
2022/12/19 02:43:22;;;;;;;44.78;26.58;;;;;;;5.87;62.11;101592.84;5037188;28;20047;-68
2022/12/19 02:45:51;;;;;;;48.25;29.17;;;;;;;5.90;62.26;101590.09;5088102;28;20049;-68
2022/12/19 02:48:18;;;;;;;50.47;28.10;;;;;;;5.92;62.18;101580.25;5078869;28;20098;-68
2022/12/19 02:50:46;;;;;;;47.95;29.17;;;;;;;5.93;62.22;101576.66;5091621;28;20047;-68
2022/12/19 02:53:16;;;;;;;47.75;28.38;;;;;;;5.95;62.34;101573.03;5091683;28;20036;-67
2022/12/19 02:56:00;;;;;;;45.80;28.77;;;;;;;5.97;62.22;101571.16;5092756;28;20048;-67
2022/12/19 02:58:55;;;;;;;40.90;25.63;;;;;;;5.99;62.28;101566.63;5112355;28;20498;-67
2022/12/19 03:01:38;;;;;;;42.72;26.27;;;;;;;6.01;62.36;101561.25;5095212;28;20043;-67
2022/12/19 03:04:18;;;;;;;41.30;25.75;;;;;;;6.02;62.20;101563.84;5095339;28;20540;-68
2022/12/19 03:07:02;;;;;;;46.20;26.95;;;;;;;6.03;62.44;101557.59;5094946;28;20569;-67
2022/12/19 03:10:05;;;;;;;43.92;25.95;;;;;;;6.06;62.32;101553.91;5094746;28;20047;-67
2022/12/19 03:12:38;;;;;;;47.42;27.02;;;;;;;6.08;62.53;101554.72;5083092;28;20210;-68
2022/12/19 03:15:06;;;;;;;44.33;26.98;;;;;;;6.10;62.34;101552.00;5095014;28;20421;-67
2022/12/19 03:17:37;;;;;;;42.83;26.65;;;;;;;6.11;62.58;101545.72;5096266;28;20044;-68
2022/12/19 03:20:09;;;;;;;40.25;26.70;;;;;;;6.10;62.75;101554.66;5096233;28;20047;-68
2022/12/19 03:22:35;;;;;;;44.78;27.17;;;;;;;6.12;62.65;101556.34;5077804;28;20413;-67
2022/12/19 03:25:02;;;;;;;46.65;27.13;;;;;;;6.18;62.63;101552.53;5096167;28;20126;-67
2022/12/19 03:27:34;;;;;;;49.63;28.88;;;;;;;6.18;62.71;101553.41;5096028;28;20048;-67
2022/12/19 03:30:07;;;;;;;43.38;26.70;;;;;;;6.22;62.64;101547.03;5096244;28;20097;-67
2022/12/19 03:32:37;;;;;;;41.55;24.73;;;;;;;6.25;62.60;101556.69;5095935;28;20047;-66
2022/12/19 03:35:13;;;;;;;45.80;26.67;;;;;;;6.27;62.66;101547.69;5096257;28;20044;-67
2022/12/19 03:37:42;;;;;;;46.95;28.23;;;;;;;6.28;62.67;101537.88;5095939;28;20048;-68
2022/12/19 03:40:20;;;;;;;47.60;28.95;;;;;;;6.29;62.75;101536.97;5095675;28;20040;-67
2022/12/19 03:43:09;;;;;;;48.75;29.10;;;;;;;6.34;62.85;101543.84;5095710;28;20044;-68
2022/12/19 03:46:01;;;;;;;45.80;28.27;;;;;;;6.37;62.88;101541.03;5095608;28;20047;-68
2022/12/19 03:48:44;;;;;;;43.22;26.25;;;;;;;6.43;62.64;101539.91;5095653;28;20520;-68
2022/12/19 03:51:36;;;;;;;46.83;27.48;;;;;;;6.47;62.99;101530.84;5095967;28;20064;-68
2022/12/19 03:54:17;;;;;;;51.60;28.95;;;;;;;6.52;62.92;101533.31;5095637;28;20050;-68
2022/12/19 03:57:01;;;;;;;46.67;27.75;;;;;;;6.57;63.02;101520.63;5095271;28;20050;-68
2022/12/19 03:59:38;;;;;;;52.67;29.27;;;;;;;6.61;62.98;101520.44;5095859;28;20040;-67
2022/12/19 04:02:06;;;;;;;48.58;28.27;;;;;;;6.64;63.08;101514.94;5094924;28;20048;-68
2022/12/19 04:04:42;;;;;;;51.85;27.58;;;;;;;6.68;63.14;101526.34;5095620;28;20090;-68
2022/12/19 04:07:11;;;;;;;60.75;30.08;;;;;;;6.69;63.25;101517.44;5094979;28;20043;-67
2022/12/19 04:09:41;;;;;;;53.35;29.38;;;;;;;6.72;63.33;101522.66;5095228;28;20563;-67
2022/12/19 04:12:14;;;;;;;48.70;27.98;;;;;;;6.75;63.47;101508.31;5095145;28;20441;-67
2022/12/19 04:14:41;;;;;;;50.80;28.60;;;;;;;6.77;63.31;101517.97;5095590;28;20060;-67
2022/12/19 04:17:25;;;;;;;52.20;30.15;;;;;;;6.79;63.45;101516.09;5095068;28;20490;-68
2022/12/19 04:20:11;;;;;;;51.20;28.52;;;;;;;6.85;63.59;101509.63;5095053;28;20501;-68
2022/12/19 04:22:50;;;;;;;;;;;;;;;6.90;63.23;101512.94;5095743;28;20097;-68
2022/12/19 04:25:23;;;;;;;53.38;25.83;;;;;;;6.99;63.25;101508.06;5095118;28;19927;-67
2022/12/19 04:28:00;;;;;;;45.72;25.90;;;;;;;7.01;63.19;101502.66;5095059;28;20048;-67
2022/12/19 04:30:27;;;;;;;46.60;25.83;;;;;;;7.03;63.21;101500.78;5094913;28;20097;-67
2022/12/19 04:32:54;;;;;;;62.47;29.98;;;;;;;7.04;63.45;101499.84;5094759;28;20040;-67
2022/12/19 04:35:20;;;;;;;52.42;26.67;;;;;;;7.08;63.58;101501.44;5094857;28;20046;-67
2022/12/19 04:37:47;;;;;;;55.92;28.85;;;;;;;7.11;63.51;101503.09;5094972;28;20105;-67
2022/12/19 04:40:14;;;;;;;48.05;26.77;;;;;;;7.15;63.55;101494.88;5094827;28;20085;-67
2022/12/19 04:42:40;;;;;;;57.25;29.85;;;;;;;7.18;63.66;101485.84;5094284;28;20058;-67
2022/12/19 04:45:08;;;;;;;63.70;29.38;;;;;;;7.22;63.68;101482.09;5094659;28;20050;-68
2022/12/19 04:47:34;;;;;;;52.25;27.33;;;;;;;7.27;63.78;101486.28;5094413;28;20036;-67
2022/12/19 04:50:01;;;;;;;46.67;27.02;;;;;;;7.32;63.87;101489.59;5093309;28;20039;-67
2022/12/19 04:52:27;;;;;;;48.70;27.40;;;;;;;7.37;63.74;101488.50;5094295;28;20040;-67
2022/12/19 04:54:54;;;;;;;48.10;27.58;;;;;;;7.43;63.95;101485.53;5094682;28;20109;-67
2022/12/19 04:57:21;;;;;;;48.70;27.90;;;;;;;7.48;63.60;101483.56;5094277;28;20036;-67
2022/12/19 04:59:47;;;;;;;51.80;28.15;;;;;;;7.53;64.00;101485.06;5094466;28;20106;-66
2022/12/19 05:02:14;;;;;;;50.22;27.77;;;;;;;7.56;64.05;101482.25;5093924;28;20055;-67
2022/12/19 05:04:40;;;;;;;52.40;26.65;;;;;;;7.61;64.32;101477.53;5094402;28;20498;-67
2022/12/19 05:07:07;;;;;;;56.25;29.13;;;;;;;7.65;64.12;101480.94;5094173;28;20036;-67
2022/12/19 05:09:35;;;;;;;51.13;27.02;;;;;;;7.70;64.13;101488.72;5092963;28;20044;-67
2022/12/19 05:12:02;;;;;;;51.10;27.52;;;;;;;7.74;64.17;101484.97;5093664;28;20036;-67
2022/12/19 05:14:28;;;;;;;52.78;27.80;;;;;;;7.78;64.24;101486.53;5094339;28;20040;-68
2022/12/19 05:16:55;;;;;;;50.05;27.75;;;;;;;7.82;64.10;101480.09;5093889;28;20101;-67
2022/12/19 05:19:27;;;;;;;51.58;27.85;;;;;;;7.86;64.36;101479.88;5093568;28;20054;-67
2022/12/19 05:21:53;;;;;;;56.92;27.92;;;;;;;7.89;64.38;101482.38;5093667;28;20579;-67
2022/12/19 05:24:20;;;;;;;50.45;25.85;;;;;;;7.94;64.32;101483.03;5093666;28;20048;-66
2022/12/19 05:26:48;;;;;;;45.92;25.10;;;;;;;7.99;64.35;101485.47;5093830;28;20040;-67
2022/12/19 05:29:16;;;;;;;51.60;26.58;;;;;;;8.02;64.50;101477.28;5093827;28;20512;-67
2022/12/19 05:31:42;;;;;;;47.80;25.45;;;;;;;8.05;64.34;101469.09;5093800;28;20486;-67
2022/12/19 05:34:09;;;;;;;52.28;25.85;;;;;;;8.10;64.66;101474.22;5093904;28;20043;-67
2022/12/19 05:36:35;;;;;;;44.13;23.63;;;;;;;8.16;64.34;101473.91;5093668;28;20040;-68
2022/12/19 05:39:02;;;;;;;42.33;24.10;;;;;;;8.19;64.44;101479.16;5093561;28;20101;-67
2022/12/19 05:41:28;;;;;;;45.45;24.17;;;;;;;8.23;64.56;101468.19;5093474;28;20555;-67
2022/12/19 05:43:55;;;;;;;42.55;23.50;;;;;;;8.27;64.47;101467.09;5093755;28;20055;-67
2022/12/19 05:46:23;;;;;;;40.55;22.65;;;;;;;8.32;64.71;101463.31;5093257;28;20048;-67
2022/12/19 05:48:51;;;;;;;43.00;22.13;;;;;;;8.37;64.67;101458.63;5093408;28;20597;-67
2022/12/19 05:51:18;;;;;;;37.50;21.50;;;;;;;8.40;64.78;101455.78;5093482;28;20040;-67
2022/12/19 05:53:45;;;;;;;35.45;20.42;;;;;;;8.45;64.74;101454.59;5093500;28;20090;-67
2022/12/19 05:56:14;;;;;;;36.60;20.10;;;;;;;8.49;64.81;101461.53;5093224;28;20115;-67
2022/12/19 05:58:42;;;;;;;44.55;23.40;;;;;;;8.55;64.79;101455.84;5093399;28;20552;-67
2022/12/19 06:01:11;;;;;;;33.97;19.05;;;;;;;8.62;64.78;101458.19;5093210;28;20040;-67
2022/12/19 06:03:38;;;;;;;34.33;20.20;;;;;;;8.66;65.08;101467.78;5093105;28;20512;-68
2022/12/19 06:06:11;;;;;;;35.78;20.15;;;;;;;8.71;65.15;101463.06;5092755;28;20044;-68
2022/12/19 06:08:38;;;;;;;34.47;18.92;;;;;;;8.76;64.93;101464.53;5093669;28;20482;-67
2022/12/19 06:11:06;;;;;;;30.08;18.20;;;;;;;8.80;64.91;101449.19;5093147;28;20044;-67
2022/12/19 06:13:34;;;;;;;31.60;18.50;;;;;;;8.84;64.96;101466.81;5093292;28;20047;-68
2022/12/19 06:16:04;;;;;;;28.40;17.90;;;;;;;8.90;64.96;101442.38;5093222;28;20056;-68
2022/12/19 06:18:31;;;;;;;31.30;18.00;;;;;;;8.95;65.00;101464.44;5093128;28;20079;-68
2022/12/19 06:20:59;;;;;;;24.35;15.95;;;;;;;9.00;65.16;101443.63;5093198;28;20036;-68
2022/12/19 06:23:29;;;;;;;24.52;15.10;;;;;;;9.05;65.33;101446.91;5092900;28;20054;-68
2022/12/19 06:25:57;;;;;;;24.00;15.70;;;;;;;9.12;65.37;101461.72;5093169;28;20124;-68
2022/12/19 06:28:25;;;;;;;21.10;13.45;;;;;;;9.16;65.33;101441.81;5093136;28;20040;-68
2022/12/19 06:30:55;;;;;;;23.65;13.75;;;;;;;9.24;65.41;101452.13;5094881;28;20047;-67
2022/12/19 06:33:22;;;;;;;19.75;13.82;;;;;;;9.31;65.36;101453.50;5097244;28;20123;-67
2022/12/19 06:36:04;;;;;;;20.88;13.70;;;;;;;9.37;65.62;101450.47;5097350;28;20036;-68
2022/12/19 06:38:32;;;;;;;18.55;13.02;;;;;;;9.45;65.72;101456.28;5097148;28;20556;-69
2022/12/19 06:43:44;;;;;;;20.08;12.05;;;;;;;9.59;65.61;101470.72;5096870;28;20044;-68
2022/12/19 06:46:18;;;;;;;17.13;12.20;;;;;;;9.61;65.51;101467.00;5096714;28;20048;-68
2022/12/19 06:48:45;;;;;;;20.70;13.23;;;;;;;9.66;65.57;101464.94;5096871;28;20131;-68
2022/12/19 06:51:11;;;;;;;21.55;12.93;;;;;;;9.72;65.58;101466.41;5096734;28;20036;-69
2022/12/19 06:53:39;;;;;;;20.30;12.25;;;;;;;9.75;65.78;101461.72;5096615;28;20482;-68
2022/12/19 06:56:06;;;;;;;21.15;12.07;;;;;;;9.81;65.74;101457.81;5096291;28;20039;-68
2022/12/19 06:58:33;;;;;;;18.33;11.95;;;;;;;9.83;65.58;101466.66;5096706;28;20036;-68
2022/12/19 07:01:00;;;;;;;18.45;11.73;;;;;;;9.86;65.69;101455.75;5096632;28;20036;-68
2022/12/19 07:03:40;;;;;;;19.83;12.35;;;;;;;9.90;65.66;101483.25;5096366;28;20105;-68
2022/12/19 07:06:07;;;;;;;16.08;10.63;;;;;;;9.93;65.65;101467.84;5096380;28;20067;-69
2022/12/19 07:08:34;;;;;;;15.52;11.15;;;;;;;9.97;65.59;101485.50;5096264;28;20036;-68
2022/12/19 07:11:00;;;;;;;14.35;10.85;;;;;;;10.00;65.73;101474.56;5096649;28;20038;-67
2022/12/19 07:13:27;;;;;;;15.90;10.95;;;;;;;10.04;65.86;101470.75;5096181;28;20044;-68
2022/12/19 07:15:57;;;;;;;16.00;10.93;;;;;;;10.06;65.85;101487.63;5096193;28;20056;-68
2022/12/19 07:18:24;;;;;;;13.70;10.23;;;;;;;10.09;65.91;101471.34;5095144;28;20040;-69
2022/12/19 07:20:50;;;;;;;18.55;11.60;;;;;;;10.13;65.64;101490.81;5096326;28;20040;-68
2022/12/19 07:23:19;;;;;;;15.15;11.10;;;;;;;10.17;65.90;101470.88;5096097;28;20405;-68
2022/12/19 07:25:46;;;;;;;15.93;11.23;;;;;;;10.18;66.00;101484.22;5096281;28;20044;-68
2022/12/19 07:28:14;;;;;;;17.08;11.18;;;;;;;10.23;65.82;101475.06;5096271;28;20448;-68
2022/12/19 07:30:40;;;;;;;14.50;10.10;;;;;;;10.27;66.00;101479.28;5096218;28;20059;-68
2022/12/19 07:33:07;;;;;;;14.68;10.52;;;;;;;10.30;65.59;101481.78;5098613;28;20093;-67
2022/12/19 07:35:37;;;;;;;13.30;10.73;;;;;;;10.34;66.03;101486.03;5101354;28;20113;-67
2022/12/19 07:38:05;;;;;;;15.85;10.52;;;;;;;10.35;65.86;101480.56;5096050;28;20131;-68
2022/12/19 07:40:32;;;;;;;16.25;10.43;;;;;;;10.39;65.98;101481.25;5095943;28;20040;-67
2022/12/19 07:43:01;;;;;;;15.13;10.40;;;;;;;10.42;65.89;101486.47;5095461;28;20047;-68
2022/12/19 07:45:28;;;;;;;13.13;8.75;;;;;;;10.43;65.76;101489.06;5095924;28;20036;-68
2022/12/19 07:47:59;;;;;;;13.45;10.15;;;;;;;10.45;65.72;101484.47;5095606;28;20089;-67
2022/12/19 07:50:26;;;;;;;12.32;10.27;;;;;;;10.47;65.92;101492.41;5095647;28;20130;-69
2022/12/19 07:52:52;;;;;;;14.50;10.07;;;;;;;10.49;65.98;101494.06;5095729;28;20425;-68
2022/12/19 07:55:19;;;;;;;12.73;9.45;;;;;;;10.51;65.74;101477.84;5095007;28;20044;-69
2022/12/19 07:57:45;;;;;;;16.90;10.50;;;;;;;10.50;65.73;101482.34;5095739;28;20429;-68
2022/12/19 08:00:13;;;;;;;13.02;8.88;;;;;;;10.53;65.74;101494.72;5095359;28;20044;-68
2022/12/19 08:02:39;;;;;;;13.77;9.60;;;;;;;10.55;65.83;101495.50;5095100;28;20437;-68
2022/12/19 08:05:06;;;;;;;11.82;9.70;;;;;;;10.55;65.62;101489.25;5095457;28;20040;-68
2022/12/19 08:07:33;;;;;;;12.55;9.63;;;;;;;10.57;65.68;101490.91;5095309;28;20039;-68
2022/12/19 08:10:00;;;;;;;12.35;9.45;;;;;;;10.58;65.73;101505.19;5095365;28;20058;-69
2022/12/19 08:12:26;;;;;;;12.48;9.02;;;;;;;10.59;65.86;101501.56;5095053;28;20086;-68
2022/12/19 08:14:53;;;;;;;11.48;9.07;;;;;;;10.58;65.86;101500.69;5095301;28;20040;-68
2022/12/19 08:17:22;;;;;;;13.05;9.25;;;;;;;10.60;65.59;101495.22;5094827;28;20097;-68
2022/12/19 08:19:49;;;;;;;14.18;9.35;;;;;;;10.61;65.88;101494.25;5095339;28;20044;-68
2022/12/19 08:22:16;;;;;;;11.45;8.70;;;;;;;10.63;65.83;101501.28;5094796;28;20048;-68
2022/12/19 08:24:42;;;;;;;11.68;9.00;;;;;;;10.65;65.55;101498.50;5094971;28;20036;-69
2022/12/19 08:27:09;;;;;;;13.35;9.10;;;;;;;10.65;65.60;101496.66;5094865;28;20048;-69
2022/12/19 08:29:36;;;;;;;12.48;9.52;;;;;;;10.66;65.57;101497.53;5099257;27;20052;-68
2022/12/19 08:32:02;;;;;;;11.55;8.85;;;;;;;10.66;65.78;101509.16;5115137;28;20055;-68
2022/12/19 08:34:29;;;;;;;12.20;9.20;;;;;;;10.66;65.67;101509.16;5108374;28;20047;-69
2022/12/19 08:36:55;;;;;;;12.05;8.13;;;;;;;10.67;65.73;101505.50;5089540;28;20501;-69
2022/12/19 08:39:22;;;;;;;10.05;8.32;;;;;;;10.67;65.48;101499.25;5094746;28;20032;-69
2022/12/19 08:41:48;;;;;;;10.90;8.82;;;;;;;10.67;65.57;101502.81;5094626;28;20402;-69
2022/12/19 08:44:15;;;;;;;13.63;9.07;;;;;;;10.67;65.78;101501.94;5094590;28;20145;-69
2022/12/19 08:46:41;;;;;;;12.75;7.85;;;;;;;10.68;65.74;101490.25;5094736;28;20405;-75
2022/12/19 08:49:15;;;;;;;11.93;8.85;;;;;;;10.68;65.74;101492.94;5094905;28;20040;-76
2022/12/19 08:51:42;;;;;;;13.70;8.20;;;;;;;10.69;65.58;101492.84;5094207;28;20044;-74
2022/12/19 08:54:09;;;;;;;11.07;8.48;;;;;;;10.69;65.77;101503.59;5092295;28;20555;-77
2022/12/19 08:56:38;;;;;;;10.05;7.63;;;;;;;10.70;65.44;101497.25;5094133;28;20044;-78
2022/12/19 08:59:13;;;;;;;10.48;8.70;;;;;;;10.73;65.53;101506.94;5093132;28;20093;-76
2022/12/19 09:01:45;;;;;;;10.48;8.48;;;;;;;10.74;65.53;101512.22;5090500;28;20036;-77
2022/12/19 09:04:12;;;;;;;10.80;8.05;;;;;;;10.76;65.43;101506.75;5084324;28;20123;-76
2022/12/19 09:06:58;;;;;;;11.20;9.05;;;;;;;10.77;65.47;101514.72;5092694;28;20111;-77
2022/12/19 09:09:26;;;;;;;9.30;8.07;;;;;;;10.79;65.40;101506.56;5092829;28;20047;-75
2022/12/19 09:11:52;;;;;;;12.65;8.68;;;;;;;10.78;65.53;101503.03;5093784;28;20052;-76
2022/12/19 09:14:19;;;;;;;11.05;8.48;;;;;;;10.82;65.58;101511.75;5093109;28;20055;-76
2022/12/19 09:16:48;;;;;;;10.07;8.20;;;;;;;10.83;65.51;101505.44;5092567;28;20044;-76
2022/12/19 09:19:15;;;;;;;14.57;9.30;;;;;;;10.83;65.54;101506.28;5093978;28;20052;-76
2022/12/19 09:21:42;;;;;;;8.88;7.93;;;;;;;10.87;65.67;101506.09;5091591;28;20040;-76
2022/12/19 09:24:10;;;;;;;11.43;8.20;;;;;;;10.89;65.60;101512.25;5085466;28;20040;-76
2022/12/19 09:26:41;;;;;;;10.63;7.80;;;;;;;10.92;65.79;101522.81;5093359;28;20109;-77
2022/12/19 09:29:08;;;;;;;9.30;7.97;;;;;;;10.94;65.84;101518.19;5073641;28;20036;-76
2022/12/19 09:31:48;;;;;;;10.77;8.15;;;;;;;10.97;65.69;101520.69;5089400;28;20087;-75
2022/12/19 09:34:21;;;;;;;9.97;7.90;;;;;;;10.99;65.57;101510.72;5093597;28;20536;-76
2022/12/19 09:36:49;;;;;;;12.25;8.18;;;;;;;11.01;65.55;101522.22;5092275;28;20048;-76
2022/12/19 09:39:17;;;;;;;9.88;7.95;;;;;;;11.01;65.52;101522.22;5093628;28;20068;-76
2022/12/19 09:41:46;;;;;;;11.82;7.82;;;;;;;11.03;65.46;101523.00;5092556;28;20040;-76
2022/12/19 09:44:29;;;;;;;10.00;7.57;;;;;;;11.04;65.57;101525.59;5075536;28;20048;-76
2022/12/19 09:46:59;;;;;;;11.23;7.95;;;;;;;11.08;65.82;101519.06;5093225;28;20036;-77
2022/12/19 09:49:37;;;;;;;10.43;8.05;;;;;;;11.09;65.76;101522.63;5093697;28;20045;-76
2022/12/19 09:52:35;;;;;;;10.02;7.32;;;;;;;11.11;65.52;101520.69;5092437;28;20040;-77
2022/12/19 09:55:04;;;;;;;10.52;7.43;;;;;;;11.16;65.41;101515.06;5075322;28;20040;-77
2022/12/19 09:57:38;;;;;;;9.82;6.88;;;;;;;11.16;65.91;101529.38;5091242;28;20039;-76
2022/12/19 10:00:13;;;;;;;8.00;6.95;;;;;;;11.19;65.81;101522.94;5093520;28;20394;-77
2022/12/19 10:02:47;;;;;;;11.05;7.43;;;;;;;11.22;65.71;101522.75;5088306;28;20059;-77
2022/12/19 10:05:21;;;;;;;9.45;7.25;;;;;;;11.25;65.78;101519.88;5071565;28;20051;-77
2022/12/19 10:08:16;;;;;;;11.05;7.70;;;;;;;11.29;65.75;101527.63;5073313;28;20052;-77
2022/12/19 10:11:19;;;;;;;10.50;7.53;;;;;;;11.31;65.85;101525.72;5074851;28;20441;-76
2022/12/19 10:14:25;;;;;;;11.18;7.15;;;;;;;11.36;65.59;101526.28;5092202;28;20044;-77
2022/12/19 10:17:19;;;;;;;11.05;7.50;;;;;;;11.40;65.59;101540.41;5093089;28;20036;-76
2022/12/19 10:20:09;;;;;;;10.38;7.05;;;;;;;11.42;65.68;101533.09;5093316;28;20093;-75
2022/12/19 10:22:50;;;;;;;8.80;7.30;;;;;;;11.44;65.59;101526.66;5075440;28;20490;-77
2022/12/19 10:25:28;;;;;;;9.57;7.07;;;;;;;11.49;65.67;101530.88;5072958;28;20045;-76
2022/12/19 10:28:14;;;;;;;12.45;7.10;;;;;;;11.49;65.29;101533.56;5072857;28;20445;-76
2022/12/19 10:31:29;;;;;;;8.75;6.45;;;;;;;11.52;65.43;101523.47;5075044;28;20064;-76
2022/12/19 10:34:19;;;;;;;7.85;7.03;;;;;;;11.54;65.37;101521.56;5049066;28;20049;-77
2022/12/19 10:36:51;;;;;;;10.05;7.15;;;;;;;11.56;65.18;101518.75;5076604;28;20064;-77
2022/12/19 10:39:54;;;;;;;8.40;6.50;;;;;;;11.59;65.49;101526.63;5084393;28;20101;-76
2022/12/19 10:42:29;;;;;;;8.45;7.15;;;;;;;11.59;65.29;101523.94;5091724;28;20478;-76
2022/12/19 10:45:01;;;;;;;9.13;6.68;;;;;;;11.61;65.43;101524.72;5091255;28;20135;-73
2022/12/19 10:47:30;;;;;;;10.15;7.05;;;;;;;11.63;65.21;101525.47;5087148;28;20394;-74
2022/12/19 10:49:56;;;;;;;8.48;6.47;;;;;;;11.63;65.07;101522.78;5072803;28;20072;-73
2022/12/19 10:52:51;;;;;;;7.68;5.88;;;;;;;11.65;65.42;101521.72;5072409;28;20490;-74
2022/12/19 10:55:28;;;;;;;8.32;6.30;;;;;;;11.66;65.20;101520.75;5083292;28;20035;-77
2022/12/19 10:57:59;;;;;;;7.85;6.00;;;;;;;11.68;65.32;101516.16;5072544;28;20073;-77
2022/12/19 11:00:27;;;;;;;8.35;6.55;;;;;;;11.68;65.17;101521.53;5071371;28;20053;-74
2022/12/19 11:03:13;;;;;;;9.68;6.40;;;;;;;11.69;64.90;101514.31;5072535;28;20068;-74
2022/12/19 11:05:50;;;;;;;7.85;5.88;;;;;;;11.71;65.16;101518.63;5075774;28;20090;-75
2022/12/19 11:08:30;;;;;;;7.05;5.95;;;;;;;11.71;65.12;101523.16;5092750;28;20051;-75
2022/12/19 11:11:03;;;;;;;9.13;6.82;;;;;;;11.72;64.89;101524.88;5092768;28;20490;-75
2022/12/19 11:13:49;;;;;;;8.35;6.05;;;;;;;11.73;64.79;101510.47;5091413;28;20036;-74
2022/12/19 11:16:37;;;;;;;9.60;6.07;;;;;;;11.75;64.81;101519.28;5092359;28;20608;-73
2022/12/19 11:19:35;;;;;;;8.40;6.03;;;;;;;11.78;65.15;101514.63;5096649;28;20068;-72
2022/12/19 11:22:29;;;;;;;8.32;6.65;;;;;;;11.80;64.85;101503.75;5096009;28;20599;-73
2022/12/19 11:25:39;;;;;;;6.50;5.50;;;;;;;11.81;64.90;101494.72;5091125;28;20101;-73
2022/12/19 11:28:32;;;;;;;9.60;6.43;;;;;;;11.85;64.95;101498.06;5095738;28;20127;-73
2022/12/19 11:31:24;;;;;;;9.15;5.90;;;;;;;11.85;64.83;101504.31;5094683;28;20494;-73
2022/12/19 11:34:18;;;;;;;7.68;6.10;;;;;;;11.84;64.82;101490.94;5095240;28;20115;-73
2022/12/19 11:36:56;;;;;;;7.03;5.80;;;;;;;11.85;64.81;101488.16;5095987;28;20064;-73
2022/12/19 11:39:46;;;;;;;6.20;5.53;;;;;;;11.85;65.00;101492.69;5095782;28;20037;-74
2022/12/19 11:42:28;;;;;;;9.55;5.40;;;;;;;11.87;64.78;101485.38;5095857;28;20460;-74
2022/12/19 11:45:31;;;;;;;8.10;5.60;;;;;;;11.87;65.08;101494.31;5083563;28;20052;-74
2022/12/19 11:48:09;;;;;;;9.15;5.20;;;;;;;11.88;64.98;101471.81;5049448;28;20053;-73
2022/12/19 11:50:47;;;;;;;6.88;5.70;;;;;;;11.90;64.76;101480.69;5075357;28;20119;-73
2022/12/19 11:53:18;;;;;;;8.48;5.72;;;;;;;11.93;65.02;101476.91;5091579;28;20044;-74